createdAt,value
2019-01-19T00:00:30.028Z,-0.70
2019-01-19T00:04:04.398Z,-0.60
2019-01-19T00:07:00.668Z,-0.60
2019-01-19T00:10:17.533Z,-0.60
2019-01-19T00:13:47.616Z,-0.50
2019-01-19T00:17:28.666Z,-0.50
2019-01-19T00:20:52.152Z,-0.60
2019-01-19T00:24:19.227Z,-0.60
2019-01-19T00:27:31.514Z,-0.70
2019-01-19T00:30:59.798Z,-0.50
2019-01-19T00:34:04.049Z,-0.60
2019-01-19T00:37:01.091Z,-0.60
2019-01-19T00:40:36.971Z,-0.60
2019-01-19T00:43:58.486Z,-0.60
2019-01-19T00:47:17.238Z,-0.60
2019-01-19T00:49:59.557Z,-0.70
2019-01-19T00:52:56.423Z,-0.80
2019-01-19T00:56:07.503Z,-0.80
2019-01-19T00:59:08.030Z,-0.90
2019-01-19T01:02:07.037Z,-1.00
2019-01-19T01:05:34.887Z,-1.00
2019-01-19T01:09:08.180Z,-1.10
2019-01-19T01:12:31.720Z,-1.10
2019-01-19T01:15:25.561Z,-1.10
2019-01-19T01:18:36.771Z,-1.10
2019-01-19T01:25:22.679Z,-1.10
2019-01-19T01:28:30.980Z,-1.20
2019-01-19T01:31:53.128Z,-1.30
2019-01-19T01:34:59.702Z,-1.40
2019-01-19T01:38:15.357Z,-1.60
2019-01-19T01:41:45.679Z,-1.70
2019-01-19T01:44:54.624Z,-1.90
2019-01-19T01:48:16.140Z,-2.00
2019-01-19T01:51:19.983Z,-2.20
2019-01-19T01:54:38.433Z,-2.20
2019-01-19T01:57:42.128Z,-2.40
2019-01-19T02:00:51.174Z,-2.40
2019-01-19T02:04:21.129Z,-2.50
2019-01-19T02:07:28.282Z,-2.60
2019-01-19T02:10:39.785Z,-2.60
2019-01-19T02:13:33.503Z,-2.70
2019-01-19T02:17:24.064Z,-2.80
2019-01-19T02:20:30.293Z,-2.80
2019-01-19T02:23:25.742Z,-2.90
2019-01-19T02:26:43.217Z,-3.00
2019-01-19T02:30:19.114Z,-3.10
2019-01-19T02:33:30.171Z,-3.10
2019-01-19T02:37:07.956Z,-3.30
2019-01-19T02:40:18.876Z,-3.40
2019-01-19T02:43:22.449Z,-3.40
2019-01-19T02:46:11.045Z,-3.50
2019-01-19T02:49:45.281Z,-3.60
2019-01-19T02:52:52.522Z,-3.70
2019-01-19T02:56:03.666Z,-3.70
2019-01-19T02:59:39.804Z,-3.80
2019-01-19T03:02:47.786Z,-3.80
2019-01-19T03:05:40.436Z,-3.90
2019-01-19T03:09:10.492Z,-4.00
2019-01-19T03:12:34.331Z,-4.10
2019-01-19T03:15:37.914Z,-4.10
2019-01-19T03:19:24.958Z,-4.20
2019-01-19T03:22:08.318Z,-4.30
2019-01-19T03:25:25.198Z,-4.40
2019-01-19T03:29:00.330Z,-4.40
2019-01-19T03:32:18.092Z,-4.50
2019-01-19T03:35:47.807Z,-4.50
2019-01-19T03:39:03.019Z,-4.60
2019-01-19T03:42:31.863Z,-4.70
2019-01-19T03:45:17.070Z,-4.70
2019-01-19T03:48:13.162Z,-4.80
2019-01-19T03:51:41.726Z,-4.80
2019-01-19T03:54:53.270Z,-4.90
2019-01-19T03:57:32.175Z,-4.90
2019-01-19T04:00:41.071Z,-4.90
2019-01-19T04:03:51.317Z,-5.00
2019-01-19T04:07:00.366Z,-5.00
2019-01-19T04:10:07.695Z,-5.10
2019-01-19T04:13:35.581Z,-5.10
2019-01-19T04:17:23.508Z,-5.20
2019-01-19T04:20:43.762Z,-5.30
2019-01-19T04:23:11.146Z,-5.30
2019-01-19T04:26:35.778Z,-5.30
2019-01-19T04:29:03.336Z,-5.30
2019-01-19T04:31:30.924Z,-5.40
2019-01-19T04:33:59.350Z,-5.50
2019-01-19T04:36:27.778Z,-5.50
2019-01-19T04:38:55.405Z,-5.50
2019-01-19T04:41:22.906Z,-5.50
2019-01-19T04:43:50.428Z,-5.50
2019-01-19T04:46:18.068Z,-5.50
2019-01-19T04:48:45.821Z,-5.40
2019-01-19T04:51:13.178Z,-5.50
2019-01-19T04:53:40.523Z,-5.60
2019-01-19T04:56:08.124Z,-5.50
2019-01-19T04:58:35.679Z,-5.60
2019-01-19T05:01:03.377Z,-5.60
2019-01-19T05:03:30.746Z,-5.60
2019-01-19T05:05:58.281Z,-5.70
2019-01-19T05:08:25.843Z,-5.70
2019-01-19T05:10:53.478Z,-5.70
2019-01-19T05:13:21.544Z,-5.70
2019-01-19T05:15:48.859Z,-5.70
2019-01-19T05:18:16.830Z,-5.70
2019-01-19T05:20:44.393Z,-5.80
2019-01-19T05:23:11.933Z,-5.90
2019-01-19T05:25:39.416Z,-5.90
2019-01-19T05:28:07.330Z,-5.90
2019-01-19T05:30:34.909Z,-6.00
2019-01-19T05:33:02.395Z,-5.90
2019-01-19T05:35:30.051Z,-6.00
2019-01-19T05:37:57.714Z,-6.10
2019-01-19T05:40:25.131Z,-6.10
2019-01-19T05:42:53.899Z,-6.10
2019-01-19T05:45:21.302Z,-6.10
2019-01-19T05:47:49.061Z,-6.10
2019-01-19T05:50:19.963Z,-6.20
2019-01-19T05:52:47.644Z,-6.20
2019-01-19T05:55:15.439Z,-6.20
2019-01-19T05:57:43.079Z,-6.20
2019-01-19T06:00:21.968Z,-6.30
2019-01-19T06:02:49.654Z,-6.30
2019-01-19T06:05:17.509Z,-6.30
2019-01-19T06:07:45.150Z,-6.40
2019-01-19T06:10:14.151Z,-6.30
2019-01-19T06:12:41.530Z,-6.40
2019-01-19T06:15:11.828Z,-6.40
2019-01-19T06:17:39.407Z,-6.40
2019-01-19T06:20:08.780Z,-6.40
2019-01-19T06:22:36.551Z,-6.30
2019-01-19T06:25:05.536Z,-6.40
2019-01-19T06:27:33.340Z,-6.50
2019-01-19T06:30:00.725Z,-6.50
2019-01-19T06:32:28.463Z,-6.50
2019-01-19T06:34:55.983Z,-6.50
2019-01-19T06:37:23.528Z,-6.50
2019-01-19T06:39:51.930Z,-6.50
2019-01-19T06:42:19.373Z,-6.50
2019-01-19T06:44:46.848Z,-6.50
2019-01-19T06:47:14.360Z,-6.40
2019-01-19T06:49:41.869Z,-6.50
2019-01-19T06:52:11.042Z,-6.50
2019-01-19T06:54:38.866Z,-6.50
2019-01-19T06:57:06.229Z,-6.40
2019-01-19T06:59:34.583Z,-6.30
2019-01-19T07:02:02.782Z,-6.30
2019-01-19T07:04:30.112Z,-6.20
2019-01-19T07:07:02.519Z,-6.20
2019-01-19T07:09:27.610Z,-6.10
2019-01-19T07:11:55.756Z,-6.10
2019-01-19T07:14:23.159Z,-6.00
2019-01-19T07:16:50.891Z,-5.90
2019-01-19T07:19:18.437Z,-5.80
2019-01-19T07:21:46.066Z,-5.70
2019-01-19T07:24:13.514Z,-5.60
2019-01-19T07:26:41.411Z,-5.50
2019-01-19T07:29:09.030Z,-5.30
2019-01-19T07:31:36.526Z,-5.20
2019-01-19T07:34:04.161Z,-5.00
2019-01-19T07:36:32.230Z,-4.90
2019-01-19T07:38:59.718Z,-4.70
2019-01-19T07:41:29.410Z,-4.40
2019-01-19T07:44:01.681Z,-4.10
2019-01-19T07:46:30.500Z,-3.70
2019-01-19T07:49:00.734Z,-3.40
2019-01-19T07:51:28.227Z,-3.10
2019-01-19T07:54:05.681Z,-2.70
2019-01-19T07:56:33.283Z,-2.20
2019-01-19T07:59:01.254Z,-1.30
2019-01-19T08:01:28.843Z,0.30
2019-01-19T08:04:04.044Z,2.10
2019-01-19T08:06:38.484Z,3.80
2019-01-19T08:09:08.556Z,5.40
2019-01-19T08:11:36.080Z,6.80
2019-01-19T08:14:05.782Z,7.80
2019-01-19T08:16:35.844Z,9.00
2019-01-19T08:19:03.649Z,10.00
2019-01-19T08:21:31.275Z,10.80
2019-01-19T08:23:59.304Z,11.70
2019-01-19T08:26:27.817Z,12.60
2019-01-19T08:28:55.777Z,13.30
2019-01-19T08:31:24.842Z,14.10
2019-01-19T08:33:53.293Z,14.60
2019-01-19T08:36:21.090Z,14.90
2019-01-19T08:38:48.770Z,15.50
2019-01-19T08:41:16.539Z,16.00
2019-01-19T08:43:50.791Z,16.70
2019-01-19T08:46:18.378Z,17.10
2019-01-19T08:48:47.599Z,17.40
2019-01-19T08:51:15.313Z,17.40
2019-01-19T08:53:42.794Z,17.50
2019-01-19T08:56:10.595Z,17.90
2019-01-19T08:58:38.167Z,18.10
2019-01-19T09:01:05.760Z,18.40
2019-01-19T09:03:33.253Z,18.90
2019-01-19T09:06:00.641Z,19.30
2019-01-19T09:08:28.131Z,19.80
2019-01-19T09:10:55.585Z,20.30
2019-01-19T09:13:23.261Z,20.80
2019-01-19T09:15:56.464Z,21.40
2019-01-19T09:18:24.025Z,21.80
2019-01-19T09:20:51.361Z,22.20
2019-01-19T09:23:26.727Z,22.70
2019-01-19T09:25:54.309Z,23.30
2019-01-19T09:28:21.705Z,24.30
2019-01-19T09:30:49.036Z,24.90
2019-01-19T09:33:17.129Z,25.40
2019-01-19T09:35:45.129Z,25.70
2019-01-19T09:38:12.731Z,25.90
2019-01-19T09:40:40.314Z,26.20
2019-01-19T09:43:07.872Z,26.30
2019-01-19T09:45:37.726Z,27.10
2019-01-19T09:48:05.254Z,27.40
2019-01-19T09:50:32.871Z,28.00
2019-01-19T09:53:00.765Z,28.50
2019-01-19T09:55:28.417Z,29.10
2019-01-19T09:57:56.311Z,29.60
2019-01-19T10:00:23.891Z,29.70
2019-01-19T10:02:54.942Z,29.50
2019-01-19T10:05:22.464Z,28.90
2019-01-19T10:07:49.983Z,27.90
2019-01-19T10:10:17.823Z,27.30
2019-01-19T10:12:45.351Z,27.30
2019-01-19T10:15:14.301Z,28.00
2019-01-19T10:17:42.817Z,28.60
2019-01-19T10:20:14.192Z,29.00
2019-01-19T10:22:41.770Z,29.40
2019-01-19T10:25:10.506Z,29.80
2019-01-19T10:27:38.159Z,30.10
2019-01-19T10:30:10.667Z,29.80
2019-01-19T10:32:38.353Z,29.90
2019-01-19T10:35:08.153Z,30.30
2019-01-19T10:37:36.514Z,30.80
2019-01-19T10:40:05.458Z,31.10
2019-01-19T10:42:32.951Z,31.10
2019-01-19T10:45:00.754Z,31.80
2019-01-19T10:47:28.237Z,32.70
2019-01-19T10:49:56.634Z,33.10
2019-01-19T10:52:24.233Z,33.10
2019-01-19T10:54:51.591Z,32.40
2019-01-19T10:57:18.969Z,31.60
2019-01-19T10:59:46.404Z,30.80
2019-01-19T11:02:13.857Z,30.40
2019-01-19T11:04:41.568Z,29.20
2019-01-19T11:07:09.086Z,28.60
2019-01-19T11:09:36.535Z,28.40
2019-01-19T11:12:05.258Z,27.90
2019-01-19T11:14:32.718Z,28.00
2019-01-19T11:17:00.274Z,28.60
2019-01-19T11:19:27.621Z,28.90
2019-01-19T11:21:54.975Z,28.30
2019-01-19T11:24:22.528Z,28.20
2019-01-19T11:26:50.116Z,28.40
2019-01-19T11:29:17.563Z,28.30
2019-01-19T11:31:45.008Z,28.30
2019-01-19T11:34:12.538Z,28.30
2019-01-19T11:36:40.522Z,28.50
2019-01-19T11:39:08.183Z,29.50
2019-01-19T11:41:36.942Z,30.50
2019-01-19T11:44:06.590Z,30.70
2019-01-19T11:46:34.053Z,29.40
2019-01-19T11:49:04.676Z,28.80
2019-01-19T11:51:32.513Z,28.30
2019-01-19T11:54:00.414Z,28.20
2019-01-19T11:56:27.912Z,28.60
2019-01-19T11:58:55.501Z,29.50
2019-01-19T12:01:22.904Z,30.30
2019-01-19T12:03:50.317Z,31.00
2019-01-19T12:06:17.767Z,31.40
2019-01-19T12:08:45.259Z,31.40
2019-01-19T12:11:12.635Z,31.40
2019-01-19T12:13:40.366Z,31.40
2019-01-19T12:16:09.812Z,31.40
2019-01-19T12:18:37.690Z,31.20
2019-01-19T12:21:05.197Z,31.00
2019-01-19T12:23:32.903Z,30.80
2019-01-19T12:26:00.366Z,31.30
2019-01-19T12:28:28.010Z,31.80
2019-01-19T12:30:55.515Z,32.20
2019-01-19T12:33:22.969Z,32.90
2019-01-19T12:35:50.373Z,33.30
2019-01-19T12:38:17.756Z,32.70
2019-01-19T12:40:45.137Z,32.20
2019-01-19T12:43:18.865Z,31.70
2019-01-19T12:45:53.333Z,31.30
2019-01-19T12:48:20.880Z,31.50
2019-01-19T12:50:48.612Z,31.60
2019-01-19T12:53:16.075Z,32.10
2019-01-19T12:55:43.688Z,32.10
2019-01-19T12:58:11.384Z,31.70
2019-01-19T13:00:39.008Z,31.00
2019-01-19T13:03:07.058Z,30.10
2019-01-19T13:05:46.435Z,28.40
2019-01-19T13:08:17.182Z,27.20
2019-01-19T13:10:51.065Z,27.10
2019-01-19T13:13:29.878Z,27.00
2019-01-19T13:17:09.952Z,27.80
2019-01-19T13:20:37.360Z,28.40
2019-01-19T13:24:15.075Z,28.90
2019-01-19T13:27:34.594Z,29.10
2019-01-19T13:30:42.676Z,29.10
2019-01-19T13:34:32.799Z,27.80
2019-01-19T13:37:42.016Z,25.90
2019-01-19T13:40:51.468Z,25.40
2019-01-19T13:44:43.697Z,25.90
2019-01-19T13:47:55.545Z,25.50
2019-01-19T13:51:13.815Z,24.70
2019-01-19T13:54:41.747Z,23.00
2019-01-19T13:58:09.426Z,21.50
2019-01-19T14:01:23.443Z,20.00
2019-01-19T14:04:53.434Z,20.50
2019-01-19T14:08:32.920Z,20.70
2019-01-19T14:11:19.958Z,21.60
2019-01-19T14:14:42.069Z,22.30
2019-01-19T14:18:06.767Z,22.40
2019-01-19T14:21:03.069Z,22.20
2019-01-19T14:24:01.808Z,20.80
2019-01-19T14:27:02.826Z,20.40
2019-01-19T14:30:13.028Z,20.00
2019-01-19T14:33:16.120Z,18.80
2019-01-19T14:37:00.273Z,17.20
2019-01-19T14:40:25.008Z,15.60
2019-01-19T14:44:33.823Z,13.90
2019-01-19T14:46:55.727Z,12.50
2019-01-19T14:50:26.500Z,10.90
2019-01-19T14:53:32.779Z,9.90
2019-01-19T14:57:10.672Z,8.70
2019-01-19T15:00:14.498Z,7.70
2019-01-19T15:03:29.278Z,6.80
2019-01-19T15:06:17.702Z,6.10
2019-01-19T15:09:05.767Z,5.40
2019-01-19T15:12:33.931Z,4.90
2019-01-19T15:16:01.842Z,4.40
2019-01-19T15:18:57.821Z,3.80
2019-01-19T15:22:53.106Z,3.30
2019-01-19T15:26:22.542Z,2.90
2019-01-19T15:29:46.945Z,2.40
2019-01-19T15:33:19.455Z,2.10
2019-01-19T15:36:50.018Z,1.80
2019-01-19T15:40:05.492Z,1.40
2019-01-19T15:42:46.191Z,1.10
2019-01-19T15:46:02.990Z,0.90
2019-01-19T15:49:01.236Z,0.60
2019-01-19T15:52:16.286Z,0.30
2019-01-19T15:55:38.219Z,0.20
2019-01-19T15:58:42.282Z,-0.10
2019-01-19T16:01:59.492Z,-0.30
2019-01-19T16:04:51.207Z,-0.50
2019-01-19T16:08:05.668Z,-0.60
2019-01-19T16:10:52.547Z,-0.70
2019-01-19T16:13:36.954Z,-0.80
2019-01-19T16:16:59.492Z,-1.00
2019-01-19T16:20:39.044Z,-1.10
2019-01-19T16:24:00.039Z,-1.30
2019-01-19T16:27:16.353Z,-1.50
2019-01-19T16:30:29.660Z,-1.70
2019-01-19T16:33:41.402Z,-1.80
2019-01-19T16:36:48.758Z,-1.90
2019-01-19T16:40:10.307Z,-2.00
2019-01-19T16:43:21.838Z,-2.10
2019-01-19T16:47:17.184Z,-2.20
2019-01-19T16:50:42.678Z,-2.30
2019-01-19T16:54:18.942Z,-2.40
2019-01-19T16:58:14.112Z,-2.50
2019-01-19T17:01:14.312Z,-2.50
2019-01-19T17:04:23.939Z,-2.60
2019-01-19T17:07:27.595Z,-2.70
2019-01-19T17:10:33.993Z,-2.80
2019-01-19T17:13:39.153Z,-2.80
2019-01-19T17:16:49.729Z,-2.80
2019-01-19T17:24:51.796Z,-2.90
2019-01-19T17:28:07.345Z,-3.00
2019-01-19T17:31:12.909Z,-3.10
2019-01-19T17:34:17.887Z,-3.20
2019-01-19T17:37:25.756Z,-3.20
2019-01-19T17:41:06.819Z,-3.30
2019-01-19T17:44:23.957Z,-3.30
2019-01-19T17:47:49.547Z,-3.40
2019-01-19T17:51:04.995Z,-3.40
2019-01-19T17:54:07.870Z,-3.50
2019-01-19T17:56:46.261Z,-3.50
2019-01-19T18:00:31.894Z,-3.50
2019-01-19T18:04:00.614Z,-3.50
2019-01-19T18:07:19.316Z,-3.60
2019-01-19T18:10:39.382Z,-3.60
2019-01-19T18:13:55.067Z,-3.70
2019-01-19T18:17:41.769Z,-3.80
2019-01-19T18:20:55.859Z,-3.80
2019-01-19T18:23:59.328Z,-3.90
2019-01-19T18:26:41.769Z,-3.90
2019-01-19T18:30:23.517Z,-3.90
2019-01-19T18:33:47.246Z,-3.90
2019-01-19T18:36:40.468Z,-4.00
2019-01-19T18:40:13.876Z,-4.10
2019-01-19T18:43:08.260Z,-4.00
2019-01-19T18:46:05.871Z,-4.10
2019-01-19T18:49:31.739Z,-4.10
2019-01-19T18:52:42.597Z,-4.10
2019-01-19T18:56:14.617Z,-4.10
2019-01-19T18:59:23.078Z,-4.20
2019-01-19T19:02:26.113Z,-4.20
2019-01-19T19:05:49.137Z,-4.20
2019-01-19T19:09:26.849Z,-4.20
2019-01-19T19:12:29.204Z,-4.30
2019-01-19T19:16:05.914Z,-4.40
2019-01-19T19:19:10.248Z,-4.40
2019-01-19T19:22:09.832Z,-4.40
2019-01-19T19:25:06.661Z,-4.30
2019-01-19T19:28:21.638Z,-4.40
2019-01-19T19:31:35.143Z,-4.40
2019-01-19T19:34:56.418Z,-4.40
2019-01-19T19:38:21.986Z,-4.30
2019-01-19T19:41:41.418Z,-4.40
2019-01-19T19:45:11.841Z,-4.40
2019-01-19T19:48:45.801Z,-4.50
2019-01-19T19:51:59.407Z,-4.40
2019-01-19T19:54:30.285Z,-4.60
2019-01-19T19:56:58.474Z,-4.60
2019-01-19T19:59:27.367Z,-4.70
2019-01-19T20:01:57.218Z,-4.70
2019-01-19T20:04:28.892Z,-4.80
2019-01-19T20:06:57.665Z,-4.90
2019-01-19T20:09:25.407Z,-4.90
2019-01-19T20:11:57.043Z,-5.00
2019-01-19T20:14:24.852Z,-5.10
2019-01-19T20:16:53.081Z,-5.10
2019-01-19T20:19:20.712Z,-5.10
2019-01-19T20:21:48.718Z,-5.20
2019-01-19T20:24:16.838Z,-5.20
2019-01-19T20:26:44.496Z,-5.20
2019-01-19T20:29:16.831Z,-5.20
2019-01-19T20:31:47.616Z,-5.30
2019-01-19T20:34:15.934Z,-5.30
2019-01-19T20:36:44.682Z,-5.30
2019-01-19T20:39:30.526Z,-5.40
2019-01-19T20:41:58.934Z,-5.40
2019-01-19T20:44:27.215Z,-5.50
2019-01-19T20:46:57.882Z,-5.50
2019-01-19T20:49:25.812Z,-5.60
2019-01-19T20:51:53.413Z,-5.60
2019-01-19T20:54:21.824Z,-5.70
2019-01-19T20:56:49.244Z,-5.80
2019-01-19T20:59:16.833Z,-5.80
2019-01-19T21:01:44.704Z,-5.90
2019-01-19T21:04:15.985Z,-5.90
2019-01-19T21:06:55.488Z,-6.00
2019-01-19T21:09:28.153Z,-6.00
2019-01-19T21:11:56.911Z,-6.00
2019-01-19T21:14:24.900Z,-6.10
2019-01-19T21:16:53.374Z,-6.10
2019-01-19T21:19:20.825Z,-6.10
2019-01-19T21:21:48.289Z,-6.20
2019-01-19T21:24:16.674Z,-6.20
2019-01-19T21:26:44.711Z,-6.30
2019-01-19T21:29:12.105Z,-6.30
2019-01-19T21:31:39.746Z,-6.40
2019-01-19T21:34:07.114Z,-6.40
2019-01-19T21:36:34.751Z,-6.40
2019-01-19T21:39:07.379Z,-6.40
2019-01-19T21:41:35.593Z,-6.50
2019-01-19T21:44:03.727Z,-6.50
2019-01-19T21:46:32.162Z,-6.60
2019-01-19T21:48:59.524Z,-6.60
2019-01-19T21:51:27.033Z,-6.60
2019-01-19T21:53:54.506Z,-6.80
2019-01-19T21:56:21.942Z,-6.80
2019-01-19T21:58:50.217Z,-6.80
2019-01-19T22:01:17.685Z,-6.90
2019-01-19T22:03:45.383Z,-6.90
2019-01-19T22:06:12.883Z,-6.90
2019-01-19T22:08:40.686Z,-7.00
2019-01-19T22:11:08.469Z,-7.00
2019-01-19T22:13:35.915Z,-7.00
2019-01-19T22:16:05.275Z,-7.00
2019-01-19T22:18:33.738Z,-7.00
2019-01-19T22:21:01.171Z,-7.00
2019-01-19T22:23:28.624Z,-7.10
2019-01-19T22:25:56.544Z,-7.10
2019-01-19T22:28:24.477Z,-7.00
2019-01-19T22:30:52.046Z,-7.00
2019-01-19T22:33:19.923Z,-6.90
2019-01-19T22:35:47.536Z,-6.90
2019-01-19T22:38:15.171Z,-6.80
2019-01-19T22:40:42.646Z,-6.70
2019-01-19T22:43:15.726Z,-6.70
2019-01-19T22:45:43.150Z,-6.60
2019-01-19T22:48:11.010Z,-6.60
2019-01-19T22:50:38.368Z,-6.50
2019-01-19T22:53:05.848Z,-6.40
2019-01-19T22:55:33.220Z,-6.40
2019-01-19T22:58:00.584Z,-6.30
2019-01-19T23:00:59.357Z,-6.20
2019-01-19T23:03:30.081Z,-6.20
2019-01-19T23:05:57.649Z,-6.20
2019-01-19T23:08:25.329Z,-6.10
2019-01-19T23:10:52.924Z,-6.10
2019-01-19T23:13:20.357Z,-6.10
2019-01-19T23:15:47.944Z,-6.00
2019-01-19T23:18:15.642Z,-6.00
2019-01-19T23:20:43.166Z,-6.00
2019-01-19T23:23:10.613Z,-5.90
2019-01-19T23:25:37.947Z,-5.90
2019-01-19T23:28:05.792Z,-5.80
2019-01-19T23:30:33.240Z,-5.70
2019-01-19T23:33:01.258Z,-5.70
2019-01-19T23:35:29.076Z,-5.60
2019-01-19T23:37:56.525Z,-5.60
2019-01-19T23:40:24.088Z,-5.50
2019-01-19T23:42:51.706Z,-5.40
2019-01-19T23:45:19.682Z,-5.30
2019-01-19T23:47:47.273Z,-5.30
2019-01-19T23:50:14.874Z,-5.20
2019-01-19T23:52:42.433Z,-5.20
2019-01-19T23:55:10.128Z,-5.10
2019-01-19T23:57:37.604Z,-5.00
